createdAt,value
2017-09-06T00:00:30.679Z,9.43
2017-09-06T00:01:33.242Z,11.32
2017-09-06T00:02:35.767Z,9.73
2017-09-06T00:03:38.253Z,8.82
2017-09-06T00:04:40.731Z,9.73
2017-09-06T00:05:43.236Z,10.95
2017-09-06T00:06:45.808Z,10.27
2017-09-06T00:07:48.315Z,9.93
2017-09-06T00:08:50.803Z,10.23
2017-09-06T00:09:54.171Z,20.12
2017-09-06T00:10:56.653Z,8.88
2017-09-06T00:11:59.165Z,9.57
2017-09-06T00:13:01.662Z,10.05
2017-09-06T00:14:04.153Z,10.48
2017-09-06T00:15:06.670Z,8.13
2017-09-06T00:16:09.157Z,9.43
2017-09-06T00:17:11.687Z,7.90
2017-09-06T00:18:14.191Z,12.52
2017-09-06T00:19:16.703Z,8.25
2017-09-06T00:20:19.174Z,10.65
2017-09-06T00:21:21.666Z,9.05
2017-09-06T00:22:24.147Z,8.52
2017-09-06T00:23:26.671Z,8.75
2017-09-06T00:24:29.161Z,9.65
2017-09-06T00:25:31.663Z,10.20
2017-09-06T00:26:34.155Z,10.68
2017-09-06T00:27:36.670Z,8.88
2017-09-06T00:28:39.188Z,13.90
2017-09-06T00:29:41.664Z,8.00
2017-09-06T00:30:44.159Z,10.75
2017-09-06T00:31:47.418Z,8.63
2017-09-06T00:32:49.919Z,9.07
2017-09-06T00:33:52.414Z,10.27
2017-09-06T00:34:55.468Z,9.27
2017-09-06T00:35:58.390Z,12.02
2017-09-06T00:37:00.951Z,8.45
2017-09-06T00:38:03.449Z,8.85
2017-09-06T00:39:05.933Z,13.45
2017-09-06T00:40:08.436Z,9.50
2017-09-06T00:41:10.932Z,10.65
2017-09-06T00:42:14.245Z,10.07
2017-09-06T00:43:16.778Z,8.50
2017-09-06T00:44:19.266Z,7.57
2017-09-06T00:45:21.803Z,9.88
2017-09-06T00:46:24.327Z,10.50
2017-09-06T00:47:26.811Z,11.75
2017-09-06T00:48:29.311Z,11.95
2017-09-06T00:49:31.854Z,10.63
2017-09-06T00:50:34.474Z,10.25
2017-09-06T00:51:37.023Z,9.63
2017-09-06T00:52:39.527Z,8.10
2017-09-06T00:53:42.083Z,11.75
2017-09-06T00:54:44.646Z,10.55
2017-09-06T00:55:47.903Z,12.18
2017-09-06T00:56:50.459Z,14.20
2017-09-06T00:57:52.980Z,14.75
2017-09-06T00:58:55.482Z,10.63
2017-09-06T00:59:58.562Z,10.77
2017-09-06T01:01:05.103Z,11.48
2017-09-06T01:02:07.601Z,12.20
2017-09-06T01:03:10.188Z,10.85
2017-09-06T01:04:13.511Z,13.50
2017-09-06T01:05:16.027Z,11.20
2017-09-06T01:06:18.578Z,13.52
2017-09-06T01:07:21.065Z,12.02
2017-09-06T01:08:23.605Z,12.98
2017-09-06T01:09:26.094Z,9.80
2017-09-06T01:10:28.603Z,13.68
2017-09-06T01:11:31.135Z,10.68
2017-09-06T01:12:33.634Z,12.25
2017-09-06T01:13:36.182Z,12.37
2017-09-06T01:14:39.506Z,12.57
2017-09-06T01:15:41.998Z,11.98
2017-09-06T01:16:44.503Z,13.65
2017-09-06T01:17:47.002Z,14.93
2017-09-06T01:18:49.538Z,12.52
2017-09-06T01:19:52.046Z,11.50
2017-09-06T01:20:54.561Z,12.10
2017-09-06T01:21:57.087Z,13.95
2017-09-06T01:22:59.980Z,13.48
2017-09-06T01:24:02.484Z,11.88
2017-09-06T01:25:05.003Z,13.85
2017-09-06T01:26:07.497Z,16.98
2017-09-06T01:27:10.022Z,15.07
2017-09-06T01:28:12.515Z,12.35
2017-09-06T01:29:19.234Z,16.10
2017-09-06T01:30:21.744Z,16.02
2017-09-06T01:31:24.250Z,14.07
2017-09-06T01:32:31.831Z,11.30
2017-09-06T01:33:35.099Z,14.20
2017-09-06T01:34:37.987Z,14.93
2017-09-06T01:35:40.955Z,14.70
2017-09-06T01:36:44.243Z,14.48
2017-09-06T01:37:46.766Z,14.10
2017-09-06T01:38:49.295Z,18.25
2017-09-06T01:39:52.715Z,15.15
2017-09-06T01:40:55.253Z,14.55
2017-09-06T01:41:57.743Z,12.40
2017-09-06T01:43:00.323Z,12.40
2017-09-06T01:44:02.838Z,15.73
2017-09-06T01:45:05.351Z,14.68
2017-09-06T01:46:07.852Z,17.37
2017-09-06T01:47:10.383Z,18.17
2017-09-06T01:48:12.886Z,14.87
2017-09-06T01:49:15.419Z,14.00
2017-09-06T01:50:17.924Z,13.30
2017-09-06T01:51:20.453Z,14.07
2017-09-06T01:52:22.959Z,14.20
2017-09-06T01:53:25.483Z,14.55
2017-09-06T01:54:27.997Z,18.52
2017-09-06T01:55:30.545Z,15.02
2017-09-06T01:56:33.049Z,16.17
2017-09-06T01:57:35.569Z,16.55
2017-09-06T01:58:38.146Z,16.87
2017-09-06T01:59:40.646Z,14.48
2017-09-06T02:00:43.299Z,16.90
2017-09-06T02:01:45.821Z,17.37
2017-09-06T02:02:48.661Z,13.82
2017-09-06T02:03:51.179Z,15.70
2017-09-06T02:04:53.687Z,14.95
2017-09-06T02:05:56.191Z,20.75
2017-09-06T02:06:58.949Z,20.12
2017-09-06T02:08:01.431Z,18.17
2017-09-06T02:09:03.942Z,20.95
2017-09-06T02:10:06.427Z,17.45
2017-09-06T02:11:08.942Z,20.05
2017-09-06T02:12:11.704Z,18.02
2017-09-06T02:13:14.191Z,17.27
2017-09-06T02:14:16.703Z,20.08
2017-09-06T02:15:19.183Z,16.77
2017-09-06T02:16:21.699Z,20.35
2017-09-06T02:17:24.213Z,21.42
2017-09-06T02:18:26.714Z,18.23
2017-09-06T02:19:29.207Z,21.85
2017-09-06T02:20:35.671Z,19.73
2017-09-06T02:21:38.200Z,22.37
2017-09-06T02:22:40.757Z,19.75
2017-09-06T02:23:43.342Z,20.55
2017-09-06T02:24:45.843Z,21.77
2017-09-06T02:25:48.425Z,21.92
2017-09-06T02:26:50.960Z,21.60
2017-09-06T02:27:53.491Z,21.23
2017-09-06T02:28:56.005Z,21.73
2017-09-06T02:29:58.615Z,22.00
2017-09-06T02:31:01.199Z,19.85
2017-09-06T02:32:03.728Z,20.70
2017-09-06T02:33:06.270Z,26.33
2017-09-06T02:34:08.772Z,26.02
2017-09-06T02:35:11.282Z,22.00
2017-09-06T02:36:13.770Z,24.30
2017-09-06T02:37:16.313Z,24.70
2017-09-06T02:38:18.826Z,24.92
2017-09-06T02:39:21.327Z,21.37
2017-09-06T02:40:23.811Z,26.05
2017-09-06T02:41:26.293Z,26.60
2017-09-06T02:42:28.800Z,27.17
2017-09-06T02:43:31.555Z,28.87
2017-09-06T02:44:34.071Z,33.55
2017-09-06T02:45:36.654Z,28.70
2017-09-06T02:46:39.190Z,26.17
2017-09-06T02:47:41.734Z,30.00
2017-09-06T02:48:45.137Z,27.02
2017-09-06T02:49:47.647Z,36.38
2017-09-06T02:50:50.140Z,41.08
2017-09-06T02:51:52.638Z,33.78
2017-09-06T02:52:55.145Z,33.28
2017-09-06T02:53:57.683Z,31.85
2017-09-06T02:55:00.530Z,40.38
2017-09-06T02:56:03.035Z,42.65
2017-09-06T02:57:05.575Z,36.60
2017-09-06T02:58:08.066Z,38.58
2017-09-06T02:59:10.592Z,34.15
2017-09-06T03:00:13.095Z,38.70
2017-09-06T03:01:15.710Z,34.80
2017-09-06T03:02:18.208Z,39.47
2017-09-06T03:03:20.703Z,38.67
2017-09-06T03:04:23.230Z,46.92
2017-09-06T03:05:25.716Z,39.95
2017-09-06T03:06:28.221Z,48.92
2017-09-06T03:07:30.701Z,49.08
2017-09-06T03:08:34.155Z,53.20
2017-09-06T03:09:36.695Z,58.47
2017-09-06T03:10:39.255Z,50.03
2017-09-06T03:11:41.758Z,58.20
2017-09-06T03:12:48.202Z,50.90
2017-09-06T03:13:50.799Z,51.22
2017-09-06T03:14:53.365Z,50.97
2017-09-06T03:15:55.911Z,49.40
2017-09-06T03:16:58.472Z,52.53
2017-09-06T03:18:00.990Z,49.25
2017-09-06T03:19:03.566Z,40.63
2017-09-06T03:20:06.633Z,51.78
2017-09-06T03:21:09.145Z,45.00
2017-09-06T03:22:11.674Z,44.10
2017-09-06T03:23:14.167Z,49.35
2017-09-06T03:24:16.684Z,49.33
2017-09-06T03:25:19.182Z,40.70
2017-09-06T03:26:21.739Z,43.90
2017-09-06T03:27:24.253Z,36.63
2017-09-06T03:28:31.119Z,37.05
2017-09-06T03:29:33.615Z,37.95
2017-09-06T03:30:36.131Z,31.85
2017-09-06T03:31:38.622Z,31.55
2017-09-06T03:32:41.117Z,32.25
2017-09-06T03:33:44.439Z,27.67
2017-09-06T03:34:46.938Z,31.90
2017-09-06T03:35:49.435Z,29.50
2017-09-06T03:36:51.988Z,27.17
2017-09-06T03:37:54.519Z,29.17
2017-09-06T03:38:57.030Z,30.27
2017-09-06T03:39:59.654Z,27.70
2017-09-06T03:41:02.759Z,37.70
2017-09-06T03:42:05.247Z,28.35
2017-09-06T03:43:07.799Z,28.50
2017-09-06T03:44:14.274Z,30.80
2017-09-06T03:45:17.447Z,27.67
2017-09-06T03:46:20.015Z,28.98
2017-09-06T03:47:22.539Z,28.02
2017-09-06T03:48:25.041Z,26.48
2017-09-06T03:49:27.574Z,26.62
2017-09-06T03:50:34.018Z,30.00
2017-09-06T03:51:36.564Z,27.75
2017-09-06T03:52:39.815Z,28.17
2017-09-06T03:53:42.308Z,22.55
2017-09-06T03:54:44.795Z,27.50
2017-09-06T03:55:47.303Z,26.08
2017-09-06T03:56:49.806Z,23.48
2017-09-06T03:57:52.998Z,27.02
2017-09-06T03:58:55.499Z,21.35
2017-09-06T03:59:57.998Z,23.12
2017-09-06T04:01:00.511Z,26.05
2017-09-06T04:02:03.034Z,24.67
2017-09-06T04:03:05.535Z,24.27
2017-09-06T04:04:08.055Z,25.40
2017-09-06T04:05:10.582Z,28.27
2017-09-06T04:06:13.111Z,24.77
2017-09-06T04:07:15.655Z,20.67
2017-09-06T04:08:18.159Z,25.98
2017-09-06T04:09:20.654Z,22.50
2017-09-06T04:10:23.152Z,21.45
2017-09-06T04:11:25.679Z,22.37
2017-09-06T04:12:28.183Z,20.73
2017-09-06T04:13:30.678Z,20.90
2017-09-06T04:14:33.154Z,24.73
2017-09-06T04:15:35.682Z,22.52
2017-09-06T04:16:38.178Z,20.98
2017-09-06T04:17:40.706Z,24.10
2017-09-06T04:18:43.200Z,19.52
2017-09-06T04:19:45.714Z,22.55
2017-09-06T04:20:48.207Z,17.02
2017-09-06T04:21:54.639Z,22.87
2017-09-06T04:22:57.358Z,20.55
2017-09-06T04:23:59.859Z,21.67
2017-09-06T04:25:02.422Z,16.60
2017-09-06T04:26:04.918Z,17.45
2017-09-06T04:27:07.409Z,16.25
2017-09-06T04:28:10.030Z,15.63
2017-09-06T04:29:12.527Z,13.32
2017-09-06T04:30:15.020Z,15.48
2017-09-06T04:31:17.533Z,15.93
2017-09-06T04:32:20.038Z,13.60
2017-09-06T04:33:22.574Z,14.15
2017-09-06T04:34:25.558Z,15.48
2017-09-06T04:35:32.347Z,18.27
2017-09-06T04:36:34.823Z,13.35
2017-09-06T04:37:38.230Z,10.07
2017-09-06T04:38:40.739Z,10.85
2017-09-06T04:39:43.551Z,14.60
2017-09-06T04:40:46.595Z,8.32
2017-09-06T04:41:49.082Z,10.05
2017-09-06T04:42:51.579Z,8.75
2017-09-06T04:43:54.075Z,9.10
2017-09-06T04:44:57.062Z,8.70
2017-09-06T04:45:59.587Z,13.45
2017-09-06T04:47:02.090Z,8.50
2017-09-06T04:48:04.579Z,9.57
2017-09-06T04:49:07.074Z,12.27
2017-09-06T04:50:09.588Z,9.13
2017-09-06T04:51:12.104Z,9.82
2017-09-06T04:52:14.662Z,9.00
2017-09-06T04:53:17.285Z,7.45
2017-09-06T04:54:23.532Z,8.60
2017-09-06T04:55:26.917Z,13.00
2017-09-06T04:56:29.565Z,9.02
2017-09-06T04:57:32.075Z,9.55
2017-09-06T04:58:34.564Z,12.30
2017-09-06T04:59:37.061Z,6.40
2017-09-06T05:00:39.926Z,8.65
2017-09-06T05:01:42.418Z,8.40
2017-09-06T05:02:49.098Z,8.38
2017-09-06T05:03:51.579Z,7.07
2017-09-06T05:04:54.063Z,10.82
2017-09-06T05:05:56.577Z,11.40
2017-09-06T05:06:59.811Z,13.45
2017-09-06T05:08:02.383Z,9.18
2017-09-06T05:09:05.126Z,10.63
2017-09-06T05:10:07.639Z,8.82
2017-09-06T05:11:10.187Z,9.80
2017-09-06T05:12:12.838Z,9.32
2017-09-06T05:13:15.403Z,7.53
2017-09-06T05:14:17.927Z,12.02
2017-09-06T05:15:20.430Z,9.55
2017-09-06T05:16:22.951Z,7.28
2017-09-06T05:17:25.482Z,8.13
2017-09-06T05:18:28.570Z,9.43
2017-09-06T05:19:31.058Z,15.52
2017-09-06T05:20:33.542Z,9.25
2017-09-06T05:21:36.058Z,7.55
2017-09-06T05:22:38.540Z,8.90
2017-09-06T05:23:41.035Z,12.75
2017-09-06T05:24:43.530Z,8.15
2017-09-06T05:25:46.019Z,8.30
2017-09-06T05:26:48.523Z,13.02
2017-09-06T05:27:51.098Z,8.52
2017-09-06T05:28:53.639Z,13.55
2017-09-06T05:29:56.711Z,9.45
2017-09-06T05:30:59.230Z,7.95
2017-09-06T05:32:01.707Z,7.53
2017-09-06T05:33:04.250Z,7.87
2017-09-06T05:34:06.729Z,9.45
2017-09-06T05:35:09.251Z,8.07
2017-09-06T05:36:11.757Z,9.90
2017-09-06T05:37:14.248Z,8.43
2017-09-06T05:38:16.737Z,10.07
2017-09-06T05:39:19.229Z,12.77
2017-09-06T05:40:22.002Z,7.32
2017-09-06T05:41:24.492Z,9.80
2017-09-06T05:42:26.975Z,7.47
2017-09-06T05:43:29.498Z,8.82
2017-09-06T05:44:31.978Z,8.10
2017-09-06T05:45:34.500Z,8.85
2017-09-06T05:46:37.907Z,7.72
2017-09-06T05:47:40.419Z,12.65
2017-09-06T05:48:42.943Z,7.43
2017-09-06T05:49:45.428Z,9.10
2017-09-06T05:50:47.919Z,9.27
2017-09-06T05:51:50.421Z,8.63
2017-09-06T05:52:52.912Z,8.18
2017-09-06T05:53:55.428Z,9.95
2017-09-06T05:54:57.914Z,6.53
2017-09-06T05:56:00.397Z,9.73
2017-09-06T05:57:02.895Z,6.15
2017-09-06T05:58:05.423Z,8.20
2017-09-06T05:59:07.988Z,8.45
2017-09-06T06:00:10.526Z,8.27
2017-09-06T06:01:13.035Z,6.57
2017-09-06T06:02:15.514Z,7.55
2017-09-06T06:03:18.008Z,6.72
2017-09-06T06:04:20.526Z,10.00
2017-09-06T06:05:27.183Z,9.80
2017-09-06T06:06:29.666Z,6.35
2017-09-06T06:07:32.139Z,6.57
2017-09-06T06:08:34.649Z,6.95
2017-09-06T06:09:37.152Z,7.28
2017-09-06T06:10:39.634Z,9.48
2017-09-06T06:11:42.153Z,5.68
2017-09-06T06:12:44.658Z,7.22
2017-09-06T06:13:47.205Z,6.47
2017-09-06T06:14:49.706Z,7.97
2017-09-06T06:15:52.335Z,8.35
2017-09-06T06:16:55.581Z,6.25
2017-09-06T06:17:58.078Z,7.15
2017-09-06T06:19:00.570Z,11.30
2017-09-06T06:20:07.131Z,8.13
2017-09-06T06:21:10.376Z,9.38
2017-09-06T06:22:17.133Z,8.70
2017-09-06T06:23:19.629Z,6.22
2017-09-06T06:24:22.123Z,8.90
2017-09-06T06:25:24.646Z,8.05
2017-09-06T06:26:27.123Z,8.30
2017-09-06T06:27:29.617Z,8.68
2017-09-06T06:28:32.119Z,10.77
2017-09-06T06:29:34.609Z,5.43
2017-09-06T06:30:37.080Z,8.63
2017-09-06T06:31:39.579Z,7.43
2017-09-06T06:32:42.096Z,6.85
2017-09-06T06:33:44.670Z,6.72
2017-09-06T06:34:47.954Z,8.60
2017-09-06T06:35:50.434Z,6.50
2017-09-06T06:36:52.906Z,7.70
2017-09-06T06:37:55.416Z,11.00
2017-09-06T06:38:57.921Z,7.95
2017-09-06T06:40:00.392Z,7.80
2017-09-06T06:41:02.888Z,8.05
2017-09-06T06:42:05.420Z,7.05
2017-09-06T06:43:07.951Z,11.50
2017-09-06T06:44:12.161Z,10.57
2017-09-06T06:45:14.771Z,10.13
2017-09-06T06:46:17.326Z,8.15
2017-09-06T06:47:19.834Z,11.35
2017-09-06T06:48:22.339Z,11.20
2017-09-06T06:49:24.877Z,8.95
2017-09-06T06:50:28.170Z,7.70
2017-09-06T06:51:30.711Z,9.77
2017-09-06T06:52:33.250Z,8.13
2017-09-06T06:53:35.788Z,8.40
2017-09-06T06:54:38.278Z,8.02
2017-09-06T06:55:40.782Z,11.30
2017-09-06T06:56:43.271Z,9.98
2017-09-06T06:57:45.782Z,10.20
2017-09-06T06:58:48.474Z,9.18
2017-09-06T06:59:55.706Z,7.78
2017-09-06T07:00:58.217Z,9.73
2017-09-06T07:02:00.700Z,8.60
2017-09-06T07:03:03.200Z,8.18
2017-09-06T07:04:05.718Z,12.07
2017-09-06T07:05:09.253Z,13.93
2017-09-06T07:06:11.829Z,7.35
2017-09-06T07:07:14.329Z,7.75
2017-09-06T07:08:16.889Z,7.43
2017-09-06T07:09:19.417Z,7.07
2017-09-06T07:10:22.482Z,6.30
2017-09-06T07:11:24.962Z,7.75
2017-09-06T07:12:28.458Z,6.97
2017-09-06T07:13:30.970Z,8.93
2017-09-06T07:14:33.448Z,6.93
2017-09-06T07:15:36.800Z,12.05
2017-09-06T07:16:40.074Z,6.12
2017-09-06T07:17:42.623Z,5.53
2017-09-06T07:18:45.121Z,7.22
2017-09-06T07:19:47.650Z,8.25
2017-09-06T07:20:50.196Z,7.30
2017-09-06T07:21:52.681Z,9.68
2017-09-06T07:22:55.282Z,7.03
2017-09-06T07:23:57.798Z,11.30
2017-09-06T07:25:01.030Z,11.45
2017-09-06T07:26:03.503Z,7.85
2017-09-06T07:27:05.987Z,8.30
2017-09-06T07:28:08.495Z,12.25
2017-09-06T07:29:11.668Z,9.25
2017-09-06T07:30:15.280Z,13.82
2017-09-06T07:31:17.860Z,9.85
2017-09-06T07:32:20.426Z,8.55
2017-09-06T07:33:22.986Z,7.93
2017-09-06T07:34:26.216Z,8.73
2017-09-06T07:35:28.791Z,8.60
2017-09-06T07:36:31.326Z,10.15
2017-09-06T07:37:33.857Z,16.15
2017-09-06T07:38:36.346Z,8.93
2017-09-06T07:39:38.860Z,9.93
2017-09-06T07:40:41.363Z,10.00
2017-09-06T07:41:43.896Z,15.75
2017-09-06T07:42:46.402Z,12.43
2017-09-06T07:43:48.942Z,11.15
2017-09-06T07:44:51.427Z,11.82
2017-09-06T07:45:53.946Z,10.90
2017-09-06T07:46:56.481Z,12.82
2017-09-06T07:47:59.004Z,12.35
2017-09-06T07:49:01.562Z,8.88
2017-09-06T07:50:04.103Z,12.37
2017-09-06T07:51:14.648Z,11.32
2017-09-06T07:52:17.151Z,12.63
2017-09-06T07:53:19.650Z,10.32
2017-09-06T07:54:23.315Z,8.48
2017-09-06T07:55:25.810Z,10.52
2017-09-06T07:56:28.316Z,8.50
2017-09-06T07:57:30.793Z,9.35
2017-09-06T07:58:34.315Z,10.90
2017-09-06T07:59:36.797Z,9.80
2017-09-06T08:00:43.116Z,8.95
2017-09-06T08:01:45.680Z,7.85
2017-09-06T08:02:48.246Z,6.93
2017-09-06T08:03:51.409Z,7.65
2017-09-06T08:04:53.928Z,5.90
2017-09-06T08:05:56.438Z,8.90
2017-09-06T08:07:04.546Z,6.37
2017-09-06T08:08:07.040Z,5.82
2017-09-06T08:09:11.320Z,4.82
2017-09-06T08:10:14.756Z,4.90
2017-09-06T08:11:17.296Z,5.05
2017-09-06T08:12:19.827Z,4.55
2017-09-06T08:13:22.468Z,4.60
2017-09-06T08:14:24.991Z,4.30
2017-09-06T08:15:27.508Z,6.45
2017-09-06T08:16:30.034Z,5.28
2017-09-06T08:17:32.532Z,4.85
2017-09-06T08:18:35.039Z,4.43
2017-09-06T08:19:38.273Z,4.20
2017-09-06T08:20:40.784Z,7.12
2017-09-06T08:21:43.298Z,4.78
2017-09-06T08:22:45.791Z,6.80
2017-09-06T08:23:52.162Z,5.93
2017-09-06T08:24:54.698Z,3.72
2017-09-06T08:25:57.219Z,7.03
2017-09-06T08:26:59.786Z,4.80
2017-09-06T08:28:02.255Z,5.15
2017-09-06T08:29:04.761Z,5.80
2017-09-06T08:30:07.267Z,8.63
2017-09-06T08:31:09.912Z,7.18
2017-09-06T08:32:16.397Z,3.80
2017-09-06T08:33:18.867Z,5.18
2017-09-06T08:34:21.372Z,7.90
2017-09-06T08:35:23.903Z,13.57
2017-09-06T08:36:26.406Z,3.75
2017-09-06T08:37:33.106Z,6.00
2017-09-06T08:38:35.612Z,6.25
2017-09-06T08:39:38.131Z,4.05
2017-09-06T08:40:40.610Z,9.88
2017-09-06T08:41:43.155Z,4.20
2017-09-06T08:42:45.716Z,4.97
2017-09-06T08:43:48.206Z,3.45
2017-09-06T08:44:50.762Z,5.72
2017-09-06T08:45:53.323Z,4.00
2017-09-06T08:46:55.832Z,3.50
2017-09-06T08:47:59.103Z,5.43
2017-09-06T08:49:01.583Z,1.50
2017-09-06T08:50:04.083Z,2.10
2017-09-06T08:51:06.579Z,8.45
2017-09-06T08:52:09.495Z,4.80
2017-09-06T08:53:12.828Z,2.17
2017-09-06T08:54:15.738Z,1.87
2017-09-06T08:55:18.273Z,4.25
2017-09-06T08:56:20.871Z,6.18
2017-09-06T08:57:23.439Z,5.53
2017-09-06T08:58:25.949Z,4.15
2017-09-06T08:59:28.569Z,3.28
2017-09-06T09:00:35.321Z,1.48
2017-09-06T09:01:37.824Z,2.50
2017-09-06T09:02:40.354Z,4.80
2017-09-06T09:03:42.855Z,4.60
2017-09-06T09:04:45.384Z,5.60
2017-09-06T09:05:48.956Z,2.50
2017-09-06T09:06:52.323Z,3.58
2017-09-06T09:07:54.863Z,2.42
2017-09-06T09:08:57.362Z,3.90
2017-09-06T09:09:59.864Z,3.20
2017-09-06T09:11:02.353Z,2.60
2017-09-06T09:12:04.846Z,3.60
2017-09-06T09:13:08.282Z,2.85
2017-09-06T09:14:10.846Z,4.47
2017-09-06T09:15:14.747Z,3.37
2017-09-06T09:16:17.234Z,3.85
2017-09-06T09:17:19.725Z,2.80
2017-09-06T09:18:22.226Z,4.15
2017-09-06T09:19:28.960Z,4.20
2017-09-06T09:20:31.473Z,5.87
2017-09-06T09:21:34.272Z,3.05
2017-09-06T09:22:37.127Z,4.28
2017-09-06T09:23:39.774Z,3.50
2017-09-06T09:24:42.266Z,3.05
2017-09-06T09:25:44.775Z,2.37
2017-09-06T09:26:47.274Z,3.05
2017-09-06T09:27:49.892Z,2.80
2017-09-06T09:28:52.402Z,4.82
2017-09-06T09:29:55.012Z,2.25
2017-09-06T09:30:57.551Z,2.90
2017-09-06T09:32:00.067Z,4.35
2017-09-06T09:33:02.569Z,3.50
2017-09-06T09:34:05.085Z,3.05
2017-09-06T09:35:07.581Z,3.60
2017-09-06T09:36:10.895Z,2.42
2017-09-06T09:37:14.440Z,7.80
2017-09-06T09:38:16.934Z,3.58
2017-09-06T09:39:19.422Z,7.85
2017-09-06T09:40:21.949Z,7.18
2017-09-06T09:41:24.482Z,5.75
2017-09-06T09:42:27.007Z,4.95
2017-09-06T09:43:29.524Z,7.78
2017-09-06T09:44:32.106Z,3.25
2017-09-06T09:45:38.768Z,6.87
2017-09-06T09:46:41.271Z,4.32
2017-09-06T09:47:43.799Z,8.48
2017-09-06T09:48:46.290Z,2.87
2017-09-06T09:49:53.335Z,9.98
2017-09-06T09:50:55.826Z,12.95
2017-09-06T09:51:58.367Z,10.45
2017-09-06T09:53:00.882Z,4.82
2017-09-06T09:54:03.406Z,6.60
2017-09-06T09:55:05.930Z,7.60
2017-09-06T09:56:09.049Z,4.53
2017-09-06T09:57:11.608Z,8.32
2017-09-06T09:58:14.110Z,6.40
2017-09-06T09:59:16.637Z,6.85
2017-09-06T10:00:19.139Z,9.48
2017-09-06T10:01:21.666Z,10.60
2017-09-06T10:02:28.330Z,10.35
2017-09-06T10:03:30.860Z,13.27
2017-09-06T10:04:34.297Z,9.85
2017-09-06T10:05:36.850Z,9.18
2017-09-06T10:06:39.409Z,10.40
2017-09-06T10:07:47.955Z,7.93
2017-09-06T10:08:50.476Z,9.10
2017-09-06T10:09:53.055Z,10.40
2017-09-06T10:10:55.530Z,7.12
2017-09-06T10:11:58.019Z,9.50
2017-09-06T10:13:00.585Z,9.52
2017-09-06T10:14:04.439Z,6.57
2017-09-06T10:15:06.978Z,8.73
2017-09-06T10:16:09.489Z,7.47
2017-09-06T10:17:12.037Z,9.80
2017-09-06T10:18:14.575Z,10.23
2017-09-06T10:19:17.148Z,7.72
2017-09-06T10:20:20.556Z,8.10
2017-09-06T10:21:23.058Z,11.93
2017-09-06T10:22:25.561Z,15.73
2017-09-06T10:23:28.085Z,10.93
2017-09-06T10:24:34.682Z,10.82
2017-09-06T10:25:37.181Z,13.13
2017-09-06T10:26:39.682Z,9.07
2017-09-06T10:27:42.167Z,15.95
2017-09-06T10:28:44.714Z,10.13
2017-09-06T10:29:47.262Z,6.85
2017-09-06T10:30:49.825Z,11.00
2017-09-06T10:31:52.343Z,16.62
2017-09-06T10:32:54.824Z,9.55
2017-09-06T10:33:57.351Z,10.60
2017-09-06T10:34:59.878Z,10.98
2017-09-06T10:36:02.374Z,12.37
2017-09-06T10:37:04.889Z,5.37
2017-09-06T10:38:07.414Z,7.50
2017-09-06T10:39:09.912Z,6.85
2017-09-06T10:40:12.437Z,11.55
2017-09-06T10:41:15.561Z,23.12
2017-09-06T10:42:18.799Z,7.90
2017-09-06T10:43:21.342Z,10.02
2017-09-06T10:44:23.809Z,11.52
2017-09-06T10:45:26.299Z,7.85
2017-09-06T10:46:28.787Z,6.90
2017-09-06T10:47:31.372Z,7.12
2017-09-06T10:48:38.571Z,8.48
2017-09-06T10:49:41.062Z,7.87
2017-09-06T10:50:43.570Z,11.23
2017-09-06T10:51:46.049Z,7.93
2017-09-06T10:52:49.083Z,6.05
2017-09-06T10:53:51.613Z,15.32
2017-09-06T10:54:54.094Z,18.65
2017-09-06T10:55:56.608Z,10.20
2017-09-06T10:56:59.088Z,22.98
2017-09-06T10:58:01.598Z,10.10
2017-09-06T10:59:04.103Z,13.93
2017-09-06T11:00:06.626Z,15.18
2017-09-06T11:01:09.130Z,10.32
2017-09-06T11:02:12.381Z,9.13
2017-09-06T11:03:19.150Z,15.65
2017-09-06T11:04:21.677Z,11.93
2017-09-06T11:05:24.162Z,12.63
2017-09-06T11:06:26.653Z,10.85
2017-09-06T11:07:29.143Z,12.82
2017-09-06T11:08:31.683Z,8.10
2017-09-06T11:09:34.182Z,13.00
2017-09-06T11:10:36.683Z,15.20
2017-09-06T11:11:39.191Z,17.05
2017-09-06T11:12:41.767Z,14.13
2017-09-06T11:13:44.279Z,21.37
2017-09-06T11:14:46.839Z,11.15
2017-09-06T11:15:49.377Z,10.68
2017-09-06T11:16:51.946Z,8.07
2017-09-06T11:17:54.475Z,12.25
2017-09-06T11:18:57.082Z,17.37
2017-09-06T11:19:59.631Z,17.35
2017-09-06T11:21:02.153Z,18.60
2017-09-06T11:22:04.659Z,16.12
2017-09-06T11:23:07.243Z,11.88
2017-09-06T11:24:10.910Z,13.70
2017-09-06T11:25:13.460Z,16.10
2017-09-06T11:26:16.014Z,16.77
2017-09-06T11:27:18.555Z,11.05
2017-09-06T11:28:21.031Z,14.98
2017-09-06T11:29:23.570Z,15.90
2017-09-06T11:30:26.786Z,9.87
2017-09-06T11:31:29.314Z,11.43
2017-09-06T11:32:31.839Z,10.73
2017-09-06T11:33:34.369Z,18.60
2017-09-06T11:34:36.846Z,6.03
2017-09-06T11:35:39.365Z,10.00
2017-09-06T11:36:41.859Z,11.27
2017-09-06T11:37:44.388Z,11.30
2017-09-06T11:38:46.913Z,12.00
2017-09-06T11:39:49.432Z,14.40
2017-09-06T11:40:51.938Z,12.05
2017-09-06T11:41:54.478Z,11.23
2017-09-06T11:42:57.020Z,14.38
2017-09-06T11:44:03.930Z,13.53
2017-09-06T11:45:07.495Z,10.85
2017-09-06T11:46:10.778Z,12.75
2017-09-06T11:47:13.284Z,12.18
2017-09-06T11:48:15.815Z,8.70
2017-09-06T11:49:22.566Z,9.98
2017-09-06T11:50:25.082Z,6.57
2017-09-06T11:51:27.610Z,8.38
2017-09-06T11:52:31.004Z,13.53
2017-09-06T11:53:33.540Z,10.90
2017-09-06T11:54:36.043Z,6.90
2017-09-06T11:55:38.578Z,9.23
2017-09-06T11:56:41.091Z,13.35
2017-09-06T11:57:43.604Z,9.32
2017-09-06T11:58:46.155Z,11.38
2017-09-06T11:59:48.667Z,15.60
2017-09-06T12:00:51.207Z,7.93
2017-09-06T12:01:53.722Z,7.85
2017-09-06T12:02:56.215Z,6.90
2017-09-06T12:03:58.746Z,14.40
2017-09-06T12:05:01.271Z,10.88
2017-09-06T12:06:03.792Z,7.62
2017-09-06T12:07:06.552Z,15.32
2017-09-06T12:08:09.081Z,12.25
2017-09-06T12:09:11.662Z,11.77
2017-09-06T12:10:14.204Z,9.80
2017-09-06T12:11:16.719Z,14.40
2017-09-06T12:12:23.339Z,8.95
2017-09-06T12:13:25.846Z,6.70
2017-09-06T12:14:28.363Z,12.13
2017-09-06T12:15:30.851Z,6.87
2017-09-06T12:16:33.402Z,10.00
2017-09-06T12:17:35.916Z,9.10
2017-09-06T12:18:38.424Z,11.18
2017-09-06T12:19:40.910Z,12.90
2017-09-06T12:20:43.415Z,11.15
2017-09-06T12:21:50.223Z,18.52
2017-09-06T12:22:52.739Z,9.95
2017-09-06T12:23:55.243Z,7.72
2017-09-06T12:24:57.758Z,11.25
2017-09-06T12:26:00.297Z,11.27
2017-09-06T12:27:02.824Z,9.32
2017-09-06T12:28:06.289Z,10.93
2017-09-06T12:29:08.829Z,13.73
2017-09-06T12:30:11.417Z,12.02
2017-09-06T12:31:14.052Z,15.55
2017-09-06T12:32:16.584Z,9.57
2017-09-06T12:33:19.338Z,8.98
2017-09-06T12:34:21.880Z,9.67
2017-09-06T12:35:24.989Z,10.57
2017-09-06T12:36:27.561Z,11.13
2017-09-06T12:37:30.136Z,15.82
2017-09-06T12:38:33.305Z,12.57
2017-09-06T12:39:39.910Z,7.25
2017-09-06T12:40:43.340Z,12.10
2017-09-06T12:41:46.433Z,12.45
2017-09-06T12:42:48.978Z,7.43
2017-09-06T12:43:51.514Z,14.43
2017-09-06T12:44:56.820Z,6.75
2017-09-06T12:46:00.260Z,6.57
2017-09-06T12:47:02.956Z,14.10
2017-09-06T12:48:05.520Z,10.32
2017-09-06T12:49:08.085Z,11.85
2017-09-06T12:50:11.586Z,14.48
2017-09-06T12:51:14.294Z,9.48
2017-09-06T12:52:16.800Z,11.38
2017-09-06T12:53:19.460Z,11.10
2017-09-06T12:54:21.970Z,11.35
2017-09-06T12:55:24.768Z,10.77
2017-09-06T12:56:27.357Z,10.50
2017-09-06T12:57:29.872Z,12.68
2017-09-06T12:58:32.440Z,12.80
2017-09-06T12:59:39.506Z,9.10
2017-09-06T13:00:42.018Z,9.75
2017-09-06T13:01:44.535Z,9.00
2017-09-06T13:02:47.044Z,9.82
2017-09-06T13:03:53.553Z,16.83
2017-09-06T13:04:56.062Z,13.73
2017-09-06T13:05:58.628Z,12.02
2017-09-06T13:07:02.039Z,12.37
2017-09-06T13:08:04.604Z,12.05
2017-09-06T13:09:07.279Z,10.95
2017-09-06T13:10:14.275Z,8.40
2017-09-06T13:11:16.927Z,7.62
2017-09-06T13:12:25.801Z,7.47
2017-09-06T13:13:29.479Z,9.88
2017-09-06T13:14:32.111Z,10.43
2017-09-06T13:15:35.505Z,17.60
2017-09-06T13:16:38.111Z,12.48
2017-09-06T13:17:45.971Z,9.45
2017-09-06T13:18:50.273Z,11.63
2017-09-06T13:19:53.408Z,14.68
2017-09-06T13:20:56.844Z,11.15
2017-09-06T13:22:01.083Z,10.50
2017-09-06T13:23:04.331Z,15.95
2017-09-06T13:24:13.856Z,15.13
2017-09-06T13:25:18.956Z,12.55
2017-09-06T13:26:27.327Z,10.95
2017-09-06T13:27:31.466Z,8.05
2017-09-06T13:28:34.425Z,12.00
2017-09-06T13:29:41.518Z,16.85
2017-09-06T13:30:44.336Z,16.05
2017-09-06T13:31:47.037Z,11.57
2017-09-06T13:34:39.320Z,8.65
2017-09-06T13:35:45.235Z,10.10
2017-09-06T13:36:47.794Z,13.13
2017-09-06T13:37:51.306Z,12.30
2017-09-06T13:38:56.472Z,16.85
2017-09-06T13:39:59.165Z,12.27
2017-09-06T13:41:05.749Z,18.67
2017-09-06T13:42:09.200Z,11.43
2017-09-06T13:43:11.951Z,13.43
2017-09-06T13:44:14.630Z,19.12